No particular awareness of the weather is required.    There are no Weather-warnings


Meteo18 Weather Cam more information Meteo18 Weather Cam


Thunder radar more information blitzortung!


Rain radar more information rain snow radar


Visit our other weather sites:

Template documentation
and downloads

And another site



Weather Underground History page Text

Daily Summary for February 19, 2018 Units:  Both    English   Metric
« Previous Day
Next Day »
Daily Weekly Monthly Yearly Custom
  High: Low: Average:
Temperature: TemperatureC °F /  -17.8 °C -1.9 °F /  -18.8 °C 2 °F /  -16.7 °C
Dew Point: DewpointC °F /  -17.8 °C -2.3 °F /  -19.1 °C 0.8 °F /  -17.3 °C
Humidity: Humidity % 77 % 91 %
Wind Speed: WindSpeedKMH mph /  0 km/h - 0.3 mph /  0.5 km/h
Wind Gust: WindSpeedGustKMH mph /  0 km/h - -
Wind:- - South
Pressure: PressurehPa in /  0 hPa 1015.5 in /  34384.8 hPa -
Precipitation: 2.0 in /  50.8 mm    
Historical Graphs
 
 
Tabular Data for February 19, 2018
Time Temperature Dew Point Pressure Wind Wind Speed Wind Gust Humidity Rainfall Rate (Hourly)
TemperatureC °F /  -17.8 °C DewpointC °F /  -17.8 °C PressurehPa in /  0 hPa Calm     Humidity % HourlyPrecipMM in /  0 mm
00:03 -0.6 °F /  -18.1 °C -1.0 °F /  -18.3 °C 1021.6 in /  34591.4 hPa Calm     97 % 0.0 in /  0 mm
00:09 -0.7 °F /  -18.2 °C -1.1 °F /  -18.4 °C 1021.6 in /  34591.4 hPa Calm     97 % 0.0 in /  0 mm
00:15 -0.8 °F /  -18.2 °C -1.2 °F /  -18.4 °C 1021.6 in /  34591.4 hPa Calm     97 % 0.0 in /  0 mm
00:21 -0.8 °F /  -18.2 °C -1.2 °F /  -18.4 °C 1021.6 in /  34591.4 hPa Calm     97 % 0.0 in /  0 mm
00:27 -0.9 °F /  -18.3 °C -1.3 °F /  -18.5 °C 1021.6 in /  34591.4 hPa Calm     97 % 0.0 in /  0 mm
00:33 -1.0 °F /  -18.3 °C -1.4 °F /  -18.6 °C 1021.6 in /  34591.4 hPa Calm     97 % 0.0 in /  0 mm
00:39 -1.1 °F /  -18.4 °C -1.5 °F /  -18.6 °C 1021.6 in /  34591.4 hPa Calm     97 % 0.0 in /  0 mm
00:45 -1.2 °F /  -18.4 °C -1.6 °F /  -18.7 °C 1021.6 in /  34591.4 hPa Calm     97 % 0.0 in /  0 mm
00:51 -1.4 °F /  -18.6 °C -1.8 °F /  -18.8 °C 1021.6 in /  34591.4 hPa Calm     97 % 0.0 in /  0 mm
00:57 -1.5 °F /  -18.6 °C -1.9 °F /  -18.8 °C 1021.6 in /  34591.4 hPa North 1.4 mph /  2.3 km/h 3.2 mph /  5.1 km/h 97 % 0.0 in /  0 mm
01:03 -1.5 °F /  -18.6 °C -1.9 °F /  -18.8 °C 1021.6 in /  34591.4 hPa NNE 1.4 mph /  2.3 km/h 1.6 mph /  2.6 km/h 97 % 0.0 in /  0 mm
01:09 -1.6 °F /  -18.7 °C -2.0 °F /  -18.9 °C 1021.6 in /  34591.4 hPa Calm   3.2 mph /  5.1 km/h 97 % 0.0 in /  0 mm
01:15 -1.7 °F /  -18.7 °C -2.1 °F /  -18.9 °C 1021.2 in /  34577.8 hPa Calm   1.6 mph /  2.6 km/h 97 % 0.0 in /  0 mm
01:22 -1.7 °F /  -18.7 °C -2.1 °F /  -18.9 °C 1021.2 in /  34577.8 hPa Calm     97 % 0.0 in /  0 mm
01:28 -1.7 °F /  -18.7 °C -2.1 °F /  -18.9 °C 1021.2 in /  34577.8 hPa Calm   1.6 mph /  2.6 km/h 97 % 0.0 in /  0 mm
01:34 -1.6 °F /  -18.7 °C -2.0 °F /  -18.9 °C 1021.2 in /  34577.8 hPa Calm   1.6 mph /  2.6 km/h 97 % 0.0 in /  0 mm
01:40 -1.6 °F /  -18.7 °C -2.0 °F /  -18.9 °C 1021.2 in /  34577.8 hPa Calm     97 % 0.0 in /  0 mm
01:46 -1.4 °F /  -18.6 °C -1.8 °F /  -18.8 °C 1021.2 in /  34577.8 hPa Calm     97 % 0.0 in /  0 mm
01:52 -1.5 °F /  -18.6 °C -1.9 °F /  -18.8 °C 1021.2 in /  34577.8 hPa Calm     97 % 0.0 in /  0 mm
01:58 -1.5 °F /  -18.6 °C -1.9 °F /  -18.8 °C 1021.2 in /  34577.8 hPa Calm     97 % 0.0 in /  0 mm
02:04 -1.6 °F /  -18.7 °C -2.0 °F /  -18.9 °C 1021.2 in /  34577.8 hPa Calm     97 % 0.0 in /  0 mm
02:10 -1.7 °F /  -18.7 °C -2.1 °F /  -18.9 °C 1021.2 in /  34577.8 hPa Calm     97 % 0.0 in /  0 mm
02:16 -1.3 °F /  -18.5 °C -1.6 °F /  -18.7 °C 1021.2 in /  34577.8 hPa Calm     98 % 0.0 in /  0 mm
02:22 -1.2 °F /  -18.4 °C -1.5 °F /  -18.6 °C 1021.2 in /  34577.8 hPa Calm     98 % 0.0 in /  0 mm
02:28 -1.2 °F /  -18.4 °C -1.5 °F /  -18.6 °C 1021.2 in /  34577.8 hPa Calm     98 % 0.0 in /  0 mm
02:34 -1.1 °F /  -18.4 °C -1.4 °F /  -18.6 °C 1021.2 in /  34577.8 hPa Calm     98 % 0.0 in /  0 mm
02:40 -1.1 °F /  -18.4 °C -1.4 °F /  -18.6 °C 1021.2 in /  34577.8 hPa Calm     98 % 0.0 in /  0 mm
02:46 -1.1 °F /  -18.4 °C -1.4 °F /  -18.6 °C 1020.9 in /  34567.7 hPa Calm     98 % 0.0 in /  0 mm
02:52 -1.1 °F /  -18.4 °C -1.4 °F /  -18.6 °C 1020.9 in /  34567.7 hPa Calm     98 % 0.0 in /  0 mm
02:59 -1.2 °F /  -18.4 °C -1.5 °F /  -18.6 °C 1020.9 in /  34567.7 hPa Calm     98 % 0.0 in /  0 mm
03:05 -1.1 °F /  -18.4 °C -1.4 °F /  -18.6 °C 1020.9 in /  34567.7 hPa Calm     98 % 0.0 in /  0 mm
03:11 -1.0 °F /  -18.3 °C -1.3 °F /  -18.5 °C 1020.9 in /  34567.7 hPa Calm     98 % 0.0 in /  0 mm
03:17 -0.9 °F /  -18.3 °C -1.2 °F /  -18.4 °C 1020.9 in /  34567.7 hPa Calm     98 % 0.0 in /  0 mm
03:23 -0.9 °F /  -18.3 °C -1.2 °F /  -18.4 °C 1020.9 in /  34567.7 hPa Calm     98 % 0.0 in /  0 mm
03:29 -1.1 °F /  -18.4 °C -1.4 °F /  -18.6 °C 1020.9 in /  34567.7 hPa Calm     98 % 0.0 in /  0 mm
03:35 -1.3 °F /  -18.5 °C -1.6 °F /  -18.7 °C 1020.5 in /  34554.1 hPa Calm     98 % 0.0 in /  0 mm
03:41 -1.5 °F /  -18.6 °C -1.9 °F /  -18.8 °C 1020.5 in /  34554.1 hPa Calm     97 % 0.0 in /  0 mm
03:47 -1.3 °F /  -18.5 °C -1.6 °F /  -18.7 °C 1020.5 in /  34554.1 hPa Calm     98 % 0.0 in /  0 mm
03:53 -1.0 °F /  -18.3 °C -1.3 °F /  -18.5 °C 1020.5 in /  34554.1 hPa Calm     98 % 0.0 in /  0 mm
03:59 -1.1 °F /  -18.4 °C -1.4 °F /  -18.6 °C 1020.5 in /  34554.1 hPa Calm     98 % 0.0 in /  0 mm
04:05 -1.1 °F /  -18.4 °C -1.4 °F /  -18.6 °C 1020.5 in /  34554.1 hPa Calm     98 % 0.0 in /  0 mm
04:11 -1.1 °F /  -18.4 °C -1.4 °F /  -18.6 °C 1020.5 in /  34554.1 hPa Calm     98 % 0.0 in /  0 mm
04:17 -1.2 °F /  -18.4 °C -1.5 °F /  -18.6 °C 1020.5 in /  34554.1 hPa Calm     98 % 0.0 in /  0 mm
04:23 -1.2 °F /  -18.4 °C -1.5 °F /  -18.6 °C 1020.5 in /  34554.1 hPa Calm     98 % 0.0 in /  0 mm
04:29 -1.3 °F /  -18.5 °C -1.6 °F /  -18.7 °C 1020.5 in /  34554.1 hPa Calm     98 % 0.0 in /  0 mm
04:35 -1.2 °F /  -18.4 °C -1.5 °F /  -18.6 °C 1020.5 in /  34554.1 hPa Calm     98 % 0.0 in /  0 mm
04:41 -1.2 °F /  -18.4 °C -1.5 °F /  -18.6 °C 1020.5 in /  34554.1 hPa Calm     98 % 0.0 in /  0 mm
04:47 -1.1 °F /  -18.4 °C -1.4 °F /  -18.6 °C 1020.5 in /  34554.1 hPa Calm     98 % 0.0 in /  0 mm
04:53 -1.1 °F /  -18.4 °C -1.4 °F /  -18.6 °C 1020.5 in /  34554.1 hPa Calm     98 % 0.0 in /  0 mm
04:59 -1.1 °F /  -18.4 °C -1.4 °F /  -18.6 °C 1020.5 in /  34554.1 hPa Calm     98 % 0.0 in /  0 mm
05:05 -1.1 °F /  -18.4 °C -1.4 °F /  -18.6 °C 1020.5 in /  34554.1 hPa Calm     98 % 0.0 in /  0 mm
05:12 -1.1 °F /  -18.4 °C -1.4 °F /  -18.6 °C 1020.5 in /  34554.1 hPa Calm     98 % 0.0 in /  0 mm
05:18 -1.1 °F /  -18.4 °C -1.4 °F /  -18.6 °C 1020.5 in /  34554.1 hPa Calm     98 % 0.0 in /  0 mm
05:24 -1.3 °F /  -18.5 °C -1.7 °F /  -18.7 °C 1020.5 in /  34554.1 hPa Calm     97 % 0.0 in /  0 mm
05:30 -1.4 °F /  -18.6 °C -1.8 °F /  -18.8 °C 1020.5 in /  34554.1 hPa Calm     97 % 0.0 in /  0 mm
05:36 -1.4 °F /  -18.6 °C -1.8 °F /  -18.8 °C 1020.5 in /  34554.1 hPa Calm     97 % 0.0 in /  0 mm
05:42 -1.4 °F /  -18.6 °C -1.8 °F /  -18.8 °C 1020.5 in /  34554.1 hPa Calm     97 % 0.0 in /  0 mm
05:48 -1.4 °F /  -18.6 °C -1.8 °F /  -18.8 °C 1020.5 in /  34554.1 hPa Calm     97 % 0.0 in /  0 mm
05:54 -1.4 °F /  -18.6 °C -1.8 °F /  -18.8 °C 1020.5 in /  34554.1 hPa Calm     97 % 0.0 in /  0 mm
06:00 -1.5 °F /  -18.6 °C -1.9 °F /  -18.8 °C 1020.5 in /  34554.1 hPa Calm     97 % 0.0 in /  0 mm
06:06 -1.6 °F /  -18.7 °C -2.0 °F /  -18.9 °C 1020.5 in /  34554.1 hPa Calm     97 % 0.0 in /  0 mm
06:12 -1.6 °F /  -18.7 °C -2.0 °F /  -18.9 °C 1020.5 in /  34554.1 hPa Calm     97 % 0.0 in /  0 mm
06:18 -1.6 °F /  -18.7 °C -2.0 °F /  -18.9 °C 1020.2 in /  34544 hPa Calm     97 % 0.0 in /  0 mm
06:24 -1.8 °F /  -18.8 °C -2.2 °F /  -19 °C 1020.2 in /  34544 hPa Calm     97 % 0.0 in /  0 mm
06:30 -1.8 °F /  -18.8 °C -2.2 °F /  -19 °C 1020.2 in /  34544 hPa Calm     97 % 0.0 in /  0 mm
06:36 -1.7 °F /  -18.7 °C -2.1 °F /  -18.9 °C 1020.2 in /  34544 hPa Calm     97 % 0.0 in /  0 mm
06:43 -1.7 °F /  -18.7 °C -2.1 °F /  -18.9 °C 1020.2 in /  34544 hPa Calm     97 % 0.0 in /  0 mm
06:49 -1.7 °F /  -18.7 °C -2.1 °F /  -18.9 °C 1020.2 in /  34544 hPa Calm     97 % 0.0 in /  0 mm
06:55 -1.8 °F /  -18.8 °C -2.2 °F /  -19 °C 1020.2 in /  34544 hPa Calm     97 % 0.0 in /  0 mm
07:01 -1.8 °F /  -18.8 °C -2.2 °F /  -19 °C 1020.5 in /  34554.1 hPa Calm     97 % 0.0 in /  0 mm
07:07 -1.8 °F /  -18.8 °C -2.2 °F /  -19 °C 1020.5 in /  34554.1 hPa Calm     97 % 0.0 in /  0 mm
07:13 -1.8 °F /  -18.8 °C -2.2 °F /  -19 °C 1020.5 in /  34554.1 hPa Calm     97 % 0.0 in /  0 mm
07:19 -1.8 °F /  -18.8 °C -2.2 °F /  -19 °C 1020.5 in /  34554.1 hPa Calm     97 % 0.0 in /  0 mm
07:25 -1.7 °F /  -18.7 °C -2.1 °F /  -18.9 °C 1020.5 in /  34554.1 hPa Calm     97 % 0.0 in /  0 mm
07:31 -1.7 °F /  -18.7 °C -2.0 °F /  -18.9 °C 1020.2 in /  34544 hPa Calm     98 % 0.0 in /  0 mm
07:37 -1.8 °F /  -18.8 °C -2.2 °F /  -19 °C 1020.2 in /  34544 hPa Calm     97 % 0.0 in /  0 mm
07:43 -1.7 °F /  -18.7 °C -2.0 °F /  -18.9 °C 1020.2 in /  34544 hPa Calm     98 % 0.0 in /  0 mm
07:49 -1.8 °F /  -18.8 °C -2.2 °F /  -19 °C 1020.2 in /  34544 hPa Calm     97 % 0.0 in /  0 mm
07:55 -1.7 °F /  -18.7 °C -2.1 °F /  -18.9 °C 1020.5 in /  34554.1 hPa Calm     97 % 0.0 in /  0 mm
08:01 -1.7 °F /  -18.7 °C -2.0 °F /  -18.9 °C 1020.5 in /  34554.1 hPa Calm     98 % 0.0 in /  0 mm
08:07 -1.7 °F /  -18.7 °C -2.1 °F /  -18.9 °C 1020.5 in /  34554.1 hPa Calm     97 % 0.0 in /  0 mm
08:13 -1.9 °F /  -18.8 °C -2.3 °F /  -19.1 °C 1020.5 in /  34554.1 hPa Calm     97 % 0.0 in /  0 mm
08:19 -1.9 °F /  -18.8 °C -2.3 °F /  -19.1 °C 1020.5 in /  34554.1 hPa Calm     97 % 0.0 in /  0 mm
08:25 -1.8 °F /  -18.8 °C -2.2 °F /  -19 °C 1020.5 in /  34554.1 hPa Calm     97 % 0.0 in /  0 mm
08:32 -1.7 °F /  -18.7 °C -2.1 °F /  -18.9 °C 1020.5 in /  34554.1 hPa Calm     97 % 0.0 in /  0 mm
08:38 -1.6 °F /  -18.7 °C -2.0 °F /  -18.9 °C 1020.5 in /  34554.1 hPa Calm     97 % 0.0 in /  0 mm
08:44 -1.7 °F /  -18.7 °C -2.1 °F /  -18.9 °C 1020.5 in /  34554.1 hPa Calm     97 % 0.0 in /  0 mm
08:50 -1.5 °F /  -18.6 °C -1.9 °F /  -18.8 °C 1020.2 in /  34544 hPa Calm     97 % 0.0 in /  0 mm
08:56 -1.4 °F /  -18.6 °C -1.8 °F /  -18.8 °C 1020.2 in /  34544 hPa Calm     97 % 0.0 in /  0 mm
09:02 -1.5 °F /  -18.6 °C -1.9 °F /  -18.8 °C 1020.2 in /  34544 hPa Calm     97 % 0.0 in /  0 mm
09:08 -1.4 °F /  -18.6 °C -1.8 °F /  -18.8 °C 1020.2 in /  34544 hPa Calm     97 % 0.0 in /  0 mm
09:14 -1.2 °F /  -18.4 °C -1.6 °F /  -18.7 °C 1020.2 in /  34544 hPa Calm     97 % 0.0 in /  0 mm
09:20 -0.6 °F /  -18.1 °C -1.0 °F /  -18.3 °C 1020.2 in /  34544 hPa Calm     97 % 0.0 in /  0 mm
09:26 -0.2 °F /  -17.9 °C -0.6 °F /  -18.1 °C 1020.2 in /  34544 hPa Calm     97 % 0.0 in /  0 mm
09:32 0.3 °F /  -17.6 °C -0.1 °F /  -17.8 °C 1020.2 in /  34544 hPa Calm     97 % 0.0 in /  0 mm
09:38 0.4 °F /  -17.6 °C 0.0 °F /  -17.8 °C 1020.2 in /  34544 hPa Calm     97 % 0.0 in /  0 mm
09:44 0.6 °F /  -17.4 °C 0.2 °F /  -17.7 °C 1020.2 in /  34544 hPa Calm     97 % 0.0 in /  0 mm
09:50 0.7 °F /  -17.4 °C 0.1 °F /  -17.7 °C 1020.2 in /  34544 hPa Calm     96 % 0.0 in /  0 mm
09:56 0.3 °F /  -17.6 °C -0.4 °F /  -18 °C 1020.2 in /  34544 hPa Calm     95 % 0.0 in /  0 mm
10:02 0.6 °F /  -17.4 °C -0.1 °F /  -17.8 °C 1020.2 in /  34544 hPa Calm     95 % 0.0 in /  0 mm
10:08 0.7 °F /  -17.4 °C 0.0 °F /  -17.8 °C 1020.2 in /  34544 hPa Calm     95 % 0.0 in /  0 mm
10:14 0.7 °F /  -17.4 °C -0.2 °F /  -17.9 °C 1020.2 in /  34544 hPa Calm     94 % 0.0 in /  0 mm
10:20 0.9 °F /  -17.3 °C 0.2 °F /  -17.7 °C 1019.9 in /  34533.8 hPa Calm     95 % 0.0 in /  0 mm
10:26 1.2 °F /  -17.1 °C 0.2 °F /  -17.7 °C 1019.9 in /  34533.8 hPa Calm     93 % 0.0 in /  0 mm
10:32 1.4 °F /  -17 °C -0.1 °F /  -17.8 °C 1019.9 in /  34533.8 hPa Calm     90 % 0.0 in /  0 mm
10:38 1.4 °F /  -17 °C 0.2 °F /  -17.7 °C 1019.9 in /  34533.8 hPa Calm     92 % 0.0 in /  0 mm
10:44 1.6 °F /  -16.9 °C 0.1 °F /  -17.7 °C 1019.9 in /  34533.8 hPa SSE 1.4 mph /  2.3 km/h 3.2 mph /  5.1 km/h 90 % 0.0 in /  0 mm
10:50 1.6 °F /  -16.9 °C 0.0 °F /  -17.8 °C 1019.5 in /  34520.3 hPa Calm   1.6 mph /  2.6 km/h 89 % 0.0 in /  0 mm
10:56 1.4 °F /  -17 °C -0.4 °F /  -18 °C 1019.5 in /  34520.3 hPa SW 1.4 mph /  2.3 km/h 1.6 mph /  2.6 km/h 88 % 0.0 in /  0 mm
11:02 1.2 °F /  -17.1 °C -0.4 °F /  -18 °C 1019.5 in /  34520.3 hPa SSW 1.4 mph /  2.3 km/h 3.2 mph /  5.1 km/h 89 % 0.0 in /  0 mm
11:08 1.2 °F /  -17.1 °C -0.3 °F /  -17.9 °C 1019.5 in /  34520.3 hPa Calm   1.6 mph /  2.6 km/h 90 % 0.0 in /  0 mm
11:14 1.3 °F /  -17.1 °C -0.2 °F /  -17.9 °C 1019.5 in /  34520.3 hPa SW 3.2 mph /  5.1 km/h 3.2 mph /  5.1 km/h 90 % 0.0 in /  0 mm
11:20 1.4 °F /  -17 °C -0.2 °F /  -17.9 °C 1019.5 in /  34520.3 hPa South 3.2 mph /  5.1 km/h 3.2 mph /  5.1 km/h 89 % 0.0 in /  0 mm
11:26 1.6 °F /  -16.9 °C 0.1 °F /  -17.7 °C 1019.5 in /  34520.3 hPa SSW 1.4 mph /  2.3 km/h 4.8 mph /  7.7 km/h 90 % 0.0 in /  0 mm
11:32 1.6 °F /  -16.9 °C 0.0 °F /  -17.8 °C 1019.5 in /  34520.3 hPa SW 4.7 mph /  7.6 km/h 4.8 mph /  7.7 km/h 89 % 0.0 in /  0 mm
11:38 1.9 °F /  -16.7 °C 0.4 °F /  -17.6 °C 1019.5 in /  34520.3 hPa SSE 1.4 mph /  2.3 km/h 6.4 mph /  10.3 km/h 90 % 0.0 in /  0 mm
11:44 2.2 °F /  -16.6 °C 0.6 °F /  -17.4 °C 1019.5 in /  34520.3 hPa SSW 1.4 mph /  2.3 km/h 3.2 mph /  5.1 km/h 89 % 0.0 in /  0 mm
11:50 2.1 °F /  -16.6 °C 0.5 °F /  -17.5 °C 1019.5 in /  34520.3 hPa SE 1.4 mph /  2.3 km/h 6.4 mph /  10.3 km/h 89 % 0.0 in /  0 mm
11:56 2.4 °F /  -16.4 °C 0.8 °F /  -17.3 °C 1019.5 in /  34520.3 hPa South 1.4 mph /  2.3 km/h 1.6 mph /  2.6 km/h 89 % 0.0 in /  0 mm
12:02 2.6 °F /  -16.3 °C 0.8 °F /  -17.3 °C 1019.5 in /  34520.3 hPa South 1.4 mph /  2.3 km/h 9.7 mph /  15.6 km/h 88 % 0.0 in /  0 mm
12:08 2.8 °F /  -16.2 °C 1.0 °F /  -17.2 °C 1019.5 in /  34520.3 hPa South 1.4 mph /  2.3 km/h 3.2 mph /  5.1 km/h 88 % 0.3 in /  7.62 mm
12:14 2.9 °F /  -16.2 °C 1.0 °F /  -17.2 °C 1019.5 in /  34520.3 hPa SSW 4.7 mph /  7.6 km/h 4.8 mph /  7.7 km/h 87 % 0.3 in /  7.62 mm
12:20 3.1 °F /  -16.1 °C 1.1 °F /  -17.2 °C 1019.5 in /  34520.3 hPa South 1.4 mph /  2.3 km/h 4.8 mph /  7.7 km/h 87 % 0.3 in /  7.62 mm
12:26 3.3 °F /  -15.9 °C 1.5 °F /  -16.9 °C 1019.5 in /  34520.3 hPa South 1.4 mph /  2.3 km/h 3.2 mph /  5.1 km/h 88 % 0.3 in /  7.62 mm
12:32 3.6 °F /  -15.8 °C 1.5 °F /  -16.9 °C 1019.5 in /  34520.3 hPa SSW 1.4 mph /  2.3 km/h 6.4 mph /  10.3 km/h 86 % 0.3 in /  7.62 mm
12:38 3.8 °F /  -15.7 °C 1.7 °F /  -16.8 °C 1019.2 in /  34510.1 hPa Calm   3.2 mph /  5.1 km/h 86 % 0.3 in /  7.62 mm
12:44 4.0 °F /  -15.6 °C 1.7 °F /  -16.8 °C 1019.2 in /  34510.1 hPa SSE 3.2 mph /  5.1 km/h 3.2 mph /  5.1 km/h 85 % 0.3 in /  7.62 mm
12:50 4.1 °F /  -15.5 °C 1.8 °F /  -16.8 °C 1019.2 in /  34510.1 hPa Calm   4.8 mph /  7.7 km/h 85 % 0.3 in /  7.62 mm
12:56 4.2 °F /  -15.4 °C 1.7 °F /  -16.8 °C 1019.2 in /  34510.1 hPa ESE 1.4 mph /  2.3 km/h 3.2 mph /  5.1 km/h 84 % 0.3 in /  7.62 mm
13:02 4.3 °F /  -15.4 °C 1.7 °F /  -16.8 °C 1018.8 in /  34496.6 hPa SW 1.4 mph /  2.3 km/h 4.8 mph /  7.7 km/h 83 % 0.3 in /  7.62 mm
13:08 4.5 °F /  -15.3 °C 1.9 °F /  -16.7 °C 1018.8 in /  34496.6 hPa Calm   3.2 mph /  5.1 km/h 83 % 0.0 in /  0 mm
13:14 4.7 °F /  -15.2 °C 2.1 °F /  -16.6 °C 1018.8 in /  34496.6 hPa SW 1.4 mph /  2.3 km/h 3.2 mph /  5.1 km/h 83 % 0.0 in /  0 mm
13:20 4.8 °F /  -15.1 °C 2.2 °F /  -16.6 °C 1018.8 in /  34496.6 hPa Calm   3.2 mph /  5.1 km/h 83 % 0.0 in /  0 mm
13:26 5.2 °F /  -14.9 °C 2.7 °F /  -16.3 °C 1018.8 in /  34496.6 hPa South 1.4 mph /  2.3 km/h 3.2 mph /  5.1 km/h 84 % 0.0 in /  0 mm
13:32 5.2 °F /  -14.9 °C 2.4 °F /  -16.4 °C 1018.8 in /  34496.6 hPa SSW 1.4 mph /  2.3 km/h 3.2 mph /  5.1 km/h 82 % 0.0 in /  0 mm
13:38 5.3 °F /  -14.8 °C 2.5 °F /  -16.4 °C 1018.8 in /  34496.6 hPa South 1.4 mph /  2.3 km/h 1.6 mph /  2.6 km/h 82 % 0.0 in /  0 mm
13:44 5.4 °F /  -14.8 °C 2.4 °F /  -16.4 °C 1018.8 in /  34496.6 hPa Calm   1.6 mph /  2.6 km/h 81 % 0.0 in /  0 mm
13:50 5.6 °F /  -14.7 °C 2.6 °F /  -16.3 °C 1018.8 in /  34496.6 hPa Calm     81 % 0.0 in /  0 mm
13:56 5.7 °F /  -14.6 °C 2.7 °F /  -16.3 °C 1018.8 in /  34496.6 hPa SSE 1.4 mph /  2.3 km/h 3.2 mph /  5.1 km/h 81 % 0.0 in /  0 mm
14:02 5.8 °F /  -14.6 °C 2.8 °F /  -16.2 °C 1018.5 in /  34486.4 hPa Calm   1.6 mph /  2.6 km/h 81 % 0.0 in /  0 mm
14:08 5.7 °F /  -14.6 °C 2.7 °F /  -16.3 °C 1018.5 in /  34486.4 hPa WSW 1.4 mph /  2.3 km/h 3.2 mph /  5.1 km/h 81 % 0.0 in /  0 mm
14:14 5.7 °F /  -14.6 °C 2.7 °F /  -16.3 °C 1018.5 in /  34486.4 hPa SW 3.2 mph /  5.1 km/h 3.2 mph /  5.1 km/h 81 % 0.0 in /  0 mm
14:20 5.6 °F /  -14.7 °C 2.2 °F /  -16.6 °C 1018.2 in /  34476.3 hPa Calm   1.6 mph /  2.6 km/h 79 % 0.0 in /  0 mm
14:26 5.7 °F /  -14.6 °C 2.5 °F /  -16.4 °C 1018.2 in /  34476.3 hPa Calm   1.6 mph /  2.6 km/h 80 % 0.0 in /  0 mm
14:33 6.0 °F /  -14.4 °C 2.6 °F /  -16.3 °C 1018.2 in /  34476.3 hPa Calm   1.6 mph /  2.6 km/h 79 % 0.0 in /  0 mm
14:39 6.0 °F /  -14.4 °C 2.5 °F /  -16.4 °C 1018.2 in /  34476.3 hPa Calm   3.2 mph /  5.1 km/h 78 % 0.0 in /  0 mm
14:45 5.9 °F /  -14.5 °C 2.2 °F /  -16.6 °C 1018.2 in /  34476.3 hPa SSW 1.4 mph /  2.3 km/h 1.6 mph /  2.6 km/h 77 % 0.0 in /  0 mm
14:51 5.8 °F /  -14.6 °C 2.1 °F /  -16.6 °C 1018.2 in /  34476.3 hPa Calm   1.6 mph /  2.6 km/h 77 % 0.0 in /  0 mm
14:57 5.9 °F /  -14.5 °C 2.4 °F /  -16.4 °C 1018.2 in /  34476.3 hPa Calm   1.6 mph /  2.6 km/h 78 % 0.0 in /  0 mm
15:03 6.1 °F /  -14.4 °C 2.6 °F /  -16.3 °C 1018.2 in /  34476.3 hPa WSW 1.4 mph /  2.3 km/h 1.6 mph /  2.6 km/h 78 % 0.0 in /  0 mm
15:09 6.0 °F /  -14.4 °C 2.5 °F /  -16.4 °C 1018.2 in /  34476.3 hPa Calm   1.6 mph /  2.6 km/h 78 % 0.0 in /  0 mm
15:15 6.1 °F /  -14.4 °C 2.4 °F /  -16.4 °C 1017.8 in /  34462.7 hPa Calm   1.6 mph /  2.6 km/h 77 % 0.0 in /  0 mm
15:21 6.0 °F /  -14.4 °C 2.3 °F /  -16.5 °C 1017.8 in /  34462.7 hPa Calm     77 % 0.0 in /  0 mm
15:27 6.2 °F /  -14.3 °C 2.8 °F /  -16.2 °C 1017.8 in /  34462.7 hPa Calm   1.6 mph /  2.6 km/h 79 % 0.0 in /  0 mm
15:33 6.1 °F /  -14.4 °C 2.4 °F /  -16.4 °C 1017.8 in /  34462.7 hPa Calm   1.6 mph /  2.6 km/h 77 % 0.0 in /  0 mm
15:39 6.1 °F /  -14.4 °C 2.6 °F /  -16.3 °C 1017.8 in /  34462.7 hPa Calm   3.2 mph /  5.1 km/h 78 % 0.0 in /  0 mm
15:45 6.1 °F /  -14.4 °C 2.6 °F /  -16.3 °C 1017.8 in /  34462.7 hPa Calm     78 % 0.0 in /  0 mm
15:51 6.1 °F /  -14.4 °C 2.6 °F /  -16.3 °C 1017.8 in /  34462.7 hPa Calm     78 % 0.0 in /  0 mm
15:57 6.1 °F /  -14.4 °C 2.7 °F /  -16.3 °C 1017.8 in /  34462.7 hPa Calm     79 % 0.0 in /  0 mm
16:03 6.0 °F /  -14.4 °C 2.5 °F /  -16.4 °C 1017.8 in /  34462.7 hPa Calm     78 % 0.0 in /  0 mm
16:09 6.0 °F /  -14.4 °C 2.8 °F /  -16.2 °C 1017.5 in /  34452.6 hPa Calm     80 % 0.0 in /  0 mm
16:15 6.0 °F /  -14.4 °C 2.8 °F /  -16.2 °C 1017.8 in /  34462.7 hPa Calm   1.6 mph /  2.6 km/h 80 % 0.0 in /  0 mm
16:21 5.9 °F /  -14.5 °C 2.7 °F /  -16.3 °C 1017.5 in /  34452.6 hPa Calm   1.6 mph /  2.6 km/h 80 % 0.0 in /  0 mm
16:27 5.9 °F /  -14.5 °C 2.7 °F /  -16.3 °C 1017.5 in /  34452.6 hPa Calm   1.6 mph /  2.6 km/h 80 % 0.0 in /  0 mm
16:33 5.8 °F /  -14.6 °C 2.6 °F /  -16.3 °C 1017.8 in /  34462.7 hPa Calm   1.6 mph /  2.6 km/h 80 % 0.0 in /  0 mm
16:39 5.8 °F /  -14.6 °C 2.6 °F /  -16.3 °C 1017.5 in /  34452.6 hPa Calm     80 % 0.0 in /  0 mm
16:45 5.8 °F /  -14.6 °C 2.8 °F /  -16.2 °C 1017.8 in /  34462.7 hPa Calm     81 % 0.0 in /  0 mm
16:51 5.8 °F /  -14.6 °C 2.8 °F /  -16.2 °C 1017.5 in /  34452.6 hPa Calm     81 % 0.0 in /  0 mm
16:57 5.8 °F /  -14.6 °C 2.8 °F /  -16.2 °C 1017.5 in /  34452.6 hPa Calm     81 % 0.0 in /  0 mm
17:04 5.8 °F /  -14.6 °C 2.8 °F /  -16.2 °C 1017.5 in /  34452.6 hPa SSW 1.4 mph /  2.3 km/h 1.6 mph /  2.6 km/h 81 % 0.0 in /  0 mm
17:10 5.8 °F /  -14.6 °C 2.6 °F /  -16.3 °C 1017.5 in /  34452.6 hPa Calm   1.6 mph /  2.6 km/h 80 % 0.0 in /  0 mm
17:16 5.8 °F /  -14.6 °C 3.0 °F /  -16.1 °C 1017.5 in /  34452.6 hPa Calm   1.6 mph /  2.6 km/h 82 % 0.0 in /  0 mm
17:22 5.8 °F /  -14.6 °C 3.0 °F /  -16.1 °C 1017.5 in /  34452.6 hPa Calm   1.6 mph /  2.6 km/h 82 % 0.0 in /  0 mm
17:28 5.8 °F /  -14.6 °C 3.1 °F /  -16.1 °C 1017.5 in /  34452.6 hPa Calm     83 % 0.0 in /  0 mm
17:34 5.8 °F /  -14.6 °C 3.1 °F /  -16.1 °C 1017.5 in /  34452.6 hPa Calm     83 % 0.0 in /  0 mm
17:40 5.8 °F /  -14.6 °C 3.1 °F /  -16.1 °C 1017.5 in /  34452.6 hPa Calm     83 % 0.0 in /  0 mm
17:46 5.7 °F /  -14.6 °C 2.9 °F /  -16.2 °C 1017.5 in /  34452.6 hPa Calm     82 % 0.0 in /  0 mm
17:52 5.7 °F /  -14.6 °C 3.0 °F /  -16.1 °C 1017.5 in /  34452.6 hPa Calm     83 % 0.0 in /  0 mm
17:58 5.7 °F /  -14.6 °C 3.0 °F /  -16.1 °C 1017.5 in /  34452.6 hPa Calm     83 % 0.0 in /  0 mm
18:04 5.6 °F /  -14.7 °C 2.9 °F /  -16.2 °C 1017.5 in /  34452.6 hPa Calm     83 % 0.0 in /  0 mm
18:10 5.6 °F /  -14.7 °C 3.1 °F /  -16.1 °C 1017.5 in /  34452.6 hPa Calm     84 % 0.0 in /  0 mm
18:16 5.4 °F /  -14.8 °C 2.9 °F /  -16.2 °C 1017.5 in /  34452.6 hPa Calm     84 % 0.0 in /  0 mm
18:22 5.4 °F /  -14.8 °C 3.1 °F /  -16.1 °C 1017.5 in /  34452.6 hPa Calm     85 % 0.0 in /  0 mm
18:28 5.3 °F /  -14.8 °C 3.0 °F /  -16.1 °C 1017.5 in /  34452.6 hPa Calm     85 % 0.0 in /  0 mm
18:34 5.3 °F /  -14.8 °C 3.1 °F /  -16.1 °C 1017.5 in /  34452.6 hPa Calm     86 % 0.0 in /  0 mm
18:40 5.2 °F /  -14.9 °C 3.2 °F /  -16 °C 1017.2 in /  34442.4 hPa Calm     87 % 0.0 in /  0 mm
18:46 5.1 °F /  -14.9 °C 3.3 °F /  -15.9 °C 1017.5 in /  34452.6 hPa Calm     88 % 0.0 in /  0 mm
18:53 5.1 °F /  -14.9 °C 3.3 °F /  -15.9 °C 1017.5 in /  34452.6 hPa Calm     88 % 0.0 in /  0 mm
18:59 5.1 °F /  -14.9 °C 3.4 °F /  -15.9 °C 1017.2 in /  34442.4 hPa Calm     89 % 0.0 in /  0 mm
19:05 5.0 °F /  -15 °C 3.3 °F /  -15.9 °C 1017.2 in /  34442.4 hPa Calm     89 % 0.3 in /  7.62 mm
19:11 4.9 °F /  -15.1 °C 3.4 °F /  -15.9 °C 1017.2 in /  34442.4 hPa Calm     90 % 0.3 in /  7.62 mm
19:17 4.8 °F /  -15.1 °C 3.3 °F /  -15.9 °C 1017.2 in /  34442.4 hPa Calm     90 % 0.3 in /  7.62 mm
19:23 4.8 °F /  -15.1 °C 3.5 °F /  -15.8 °C 1017.2 in /  34442.4 hPa Calm     91 % 0.3 in /  7.62 mm
19:29 4.7 °F /  -15.2 °C 3.4 °F /  -15.9 °C 1017.2 in /  34442.4 hPa Calm     91 % 0.3 in /  7.62 mm
19:35 4.7 °F /  -15.2 °C 3.5 °F /  -15.8 °C 1017.2 in /  34442.4 hPa Calm     92 % 0.3 in /  7.62 mm
19:41 4.6 °F /  -15.2 °C 3.4 °F /  -15.9 °C 1017.2 in /  34442.4 hPa SSW 1.4 mph /  2.3 km/h 1.6 mph /  2.6 km/h 92 % 0.3 in /  7.62 mm
19:47 4.6 °F /  -15.2 °C 3.4 °F /  -15.9 °C 1017.2 in /  34442.4 hPa Calm     92 % 0.3 in /  7.62 mm
19:53 4.6 °F /  -15.2 °C 3.6 °F /  -15.8 °C 1016.8 in /  34428.8 hPa Calm     93 % 0.3 in /  7.62 mm
19:59 4.6 °F /  -15.2 °C 3.6 °F /  -15.8 °C 1016.8 in /  34428.8 hPa Calm     93 % 0.3 in /  7.62 mm
20:05 4.6 °F /  -15.2 °C 3.6 °F /  -15.8 °C 1016.8 in /  34428.8 hPa Calm     93 % 0.0 in /  0 mm
20:11 4.6 °F /  -15.2 °C 3.6 °F /  -15.8 °C 1016.8 in /  34428.8 hPa Calm     93 % 0.3 in /  7.62 mm
20:17 4.5 °F /  -15.3 °C 3.5 °F /  -15.8 °C 1016.8 in /  34428.8 hPa Calm     93 % 0.3 in /  7.62 mm
20:23 4.5 °F /  -15.3 °C 3.6 °F /  -15.8 °C 1016.8 in /  34428.8 hPa Calm     94 % 0.3 in /  7.62 mm
20:29 4.4 °F /  -15.3 °C 3.5 °F /  -15.8 °C 1016.8 in /  34428.8 hPa Calm     94 % 0.3 in /  7.62 mm
20:35 4.4 °F /  -15.3 °C 3.5 °F /  -15.8 °C 1016.8 in /  34428.8 hPa Calm     94 % 0.3 in /  7.62 mm
20:41 4.4 °F /  -15.3 °C 3.5 °F /  -15.8 °C 1016.8 in /  34428.8 hPa Calm     94 % 0.3 in /  7.62 mm
20:47 4.3 °F /  -15.4 °C 3.4 °F /  -15.9 °C 1016.8 in /  34428.8 hPa Calm     94 % 0.3 in /  7.62 mm
20:53 4.3 °F /  -15.4 °C 3.6 °F /  -15.8 °C 1016.8 in /  34428.8 hPa Calm     95 % 0.3 in /  7.62 mm
20:59 4.3 °F /  -15.4 °C 3.6 °F /  -15.8 °C 1016.8 in /  34428.8 hPa Calm     95 % 0.3 in /  7.62 mm
21:05 4.3 °F /  -15.4 °C 3.6 °F /  -15.8 °C 1016.8 in /  34428.8 hPa Calm     95 % 0.3 in /  7.62 mm
21:11 4.2 °F /  -15.4 °C 3.5 °F /  -15.8 °C 1016.8 in /  34428.8 hPa Calm     95 % 0.3 in /  7.62 mm
21:17 4.2 °F /  -15.4 °C 3.5 °F /  -15.8 °C 1016.8 in /  34428.8 hPa Calm     95 % 0.3 in /  7.62 mm
21:23 4.2 °F /  -15.4 °C 3.5 °F /  -15.8 °C 1016.5 in /  34418.7 hPa Calm     95 % 0.3 in /  7.62 mm
21:29 4.2 °F /  -15.4 °C 3.5 °F /  -15.8 °C 1016.5 in /  34418.7 hPa Calm     95 % 0.3 in /  7.62 mm
21:35 4.2 °F /  -15.4 °C 3.5 °F /  -15.8 °C 1016.5 in /  34418.7 hPa Calm     95 % 0.3 in /  7.62 mm
21:41 4.2 °F /  -15.4 °C 3.5 °F /  -15.8 °C 1016.5 in /  34418.7 hPa Calm     95 % 0.3 in /  7.62 mm
21:47 4.2 °F /  -15.4 °C 3.5 °F /  -15.8 °C 1016.5 in /  34418.7 hPa Calm     95 % 0.3 in /  7.62 mm
21:53 4.2 °F /  -15.4 °C 3.6 °F /  -15.8 °C 1016.5 in /  34418.7 hPa Calm     96 % 0.3 in /  7.62 mm
21:59 4.2 °F /  -15.4 °C 3.6 °F /  -15.8 °C 1016.5 in /  34418.7 hPa Calm     96 % 0.3 in /  7.62 mm
22:05 4.2 °F /  -15.4 °C 3.6 °F /  -15.8 °C 1016.5 in /  34418.7 hPa Calm     96 % 0.5 in /  12.7 mm
22:11 4.2 °F /  -15.4 °C 3.6 °F /  -15.8 °C 1016.5 in /  34418.7 hPa Calm     96 % 0.3 in /  7.62 mm
22:17 4.2 °F /  -15.4 °C 3.6 °F /  -15.8 °C 1016.5 in /  34418.7 hPa Calm     96 % 0.3 in /  7.62 mm
22:23 4.2 °F /  -15.4 °C 3.6 °F /  -15.8 °C 1016.5 in /  34418.7 hPa Calm     96 % 0.3 in /  7.62 mm
22:29 4.1 °F /  -15.5 °C 3.5 °F /  -15.8 °C 1016.5 in /  34418.7 hPa Calm     96 % 0.5 in /  12.7 mm
22:35 4.1 °F /  -15.5 °C 3.5 °F /  -15.8 °C 1016.1 in /  34405.1 hPa Calm     96 % 0.5 in /  12.7 mm
22:41 4.1 °F /  -15.5 °C 3.5 °F /  -15.8 °C 1016.1 in /  34405.1 hPa Calm     96 % 0.5 in /  12.7 mm
22:47 4.1 °F /  -15.5 °C 3.5 °F /  -15.8 °C 1016.1 in /  34405.1 hPa Calm     96 % 0.5 in /  12.7 mm
22:53 4.1 °F /  -15.5 °C 3.5 °F /  -15.8 °C 1016.1 in /  34405.1 hPa Calm   1.6 mph /  2.6 km/h 96 % 0.5 in /  12.7 mm
22:59 4.1 °F /  -15.5 °C 3.5 °F /  -15.8 °C 1016.1 in /  34405.1 hPa Calm   3.2 mph /  5.1 km/h 96 % 0.5 in /  12.7 mm
23:05 4.1 °F /  -15.5 °C 3.5 °F /  -15.8 °C 1016.1 in /  34405.1 hPa Calm   1.6 mph /  2.6 km/h 96 % 0.5 in /  12.7 mm
23:11 4.1 °F /  -15.5 °C 3.5 °F /  -15.8 °C 1016.1 in /  34405.1 hPa SSE 1.4 mph /  2.3 km/h 3.2 mph /  5.1 km/h 96 % 0.5 in /  12.7 mm
23:18 4.1 °F /  -15.5 °C 3.5 °F /  -15.8 °C 1015.8 in /  34395 hPa Calm   1.6 mph /  2.6 km/h 96 % 0.5 in /  12.7 mm
23:24 4.0 °F /  -15.6 °C 3.4 °F /  -15.9 °C 1015.8 in /  34395 hPa SE 3.2 mph /  5.1 km/h 3.2 mph /  5.1 km/h 96 % 0.5 in /  12.7 mm
23:30 4.0 °F /  -15.6 °C 3.4 °F /  -15.9 °C 1015.8 in /  34395 hPa Calm   1.6 mph /  2.6 km/h 96 % 0.5 in /  12.7 mm
23:36 4.0 °F /  -15.6 °C 3.4 °F /  -15.9 °C 1015.8 in /  34395 hPa Calm   1.6 mph /  2.6 km/h 96 % 0.5 in /  12.7 mm
23:42 4.0 °F /  -15.6 °C 3.4 °F /  -15.9 °C 1015.5 in /  34384.8 hPa Calm   1.6 mph /  2.6 km/h 96 % 0.5 in /  12.7 mm
23:48 4.0 °F /  -15.6 °C 3.4 °F /  -15.9 °C 1015.5 in /  34384.8 hPa Calm   1.6 mph /  2.6 km/h 96 % 0.5 in /  12.7 mm
23:54 4.0 °F /  -15.6 °C 3.4 °F /  -15.9 °C 1015.8 in /  34395 hPa Calm     96 % 0.5 in /  12.7 mm
Meteo18
Compliments of Weather Underground - 4 mb

Script developed by  Jim McMurry - jmcmurry@mwt.net Adapted for the template by  Wim van der Kuil - Leuven-Template.eu

You find our weather info also at:

European Weather Network

Weather Underground

Equipment we use:

Weather-station
Davis Vue

Weather-program
Meteobridge

Weather-server
Raspberry PI 2 B+

Provider
1 and 1

Davis Vue

Meteobridge

Raspberry PI 2 B+

1 and 1